createdAt,value
2023-07-19T00:01:29.737Z,38.48
2023-07-19T00:03:31.395Z,38.38
2023-07-19T00:05:32.952Z,38.76
2023-07-19T00:07:34.543Z,38.60
2023-07-19T00:09:36.103Z,38.88
2023-07-19T00:11:37.595Z,38.96
2023-07-19T00:13:39.061Z,38.55
2023-07-19T00:15:40.722Z,38.83
2023-07-19T00:17:45.728Z,38.86
2023-07-19T00:19:47.279Z,38.65
2023-07-19T00:21:48.781Z,38.79
2023-07-19T00:23:50.254Z,38.81
2023-07-19T00:25:51.866Z,39.01
2023-07-19T00:27:53.422Z,38.96
2023-07-19T00:29:54.902Z,39.00
2023-07-19T00:31:56.338Z,38.78
2023-07-19T00:33:57.856Z,38.83
2023-07-19T00:35:59.520Z,38.93
2023-07-19T00:38:00.990Z,39.06
2023-07-19T00:40:02.856Z,38.97
2023-07-19T00:42:04.526Z,38.87
2023-07-19T00:44:06.236Z,39.19
2023-07-19T00:46:08.203Z,39.12
2023-07-19T00:48:09.918Z,39.19
2023-07-19T00:50:11.947Z,39.04
2023-07-19T00:52:13.680Z,39.11
2023-07-19T00:54:15.605Z,39.42
2023-07-19T00:56:18.124Z,39.02
2023-07-19T00:58:21.917Z,39.16
2023-07-19T01:00:24.081Z,39.03
2023-07-19T01:02:26.508Z,39.39
2023-07-19T01:04:30.644Z,39.41
2023-07-19T01:06:32.247Z,39.33
2023-07-19T01:08:33.812Z,39.34
2023-07-19T01:10:35.376Z,39.06
2023-07-19T01:12:36.877Z,39.40
2023-07-19T01:14:38.430Z,39.54
2023-07-19T01:16:39.900Z,39.18
2023-07-19T01:18:41.416Z,39.51
2023-07-19T01:20:42.922Z,39.55
2023-07-19T01:22:47.073Z,39.39
2023-07-19T01:24:48.640Z,39.26
2023-07-19T01:26:50.151Z,39.56
2023-07-19T01:28:51.668Z,39.54
2023-07-19T01:30:53.327Z,39.51
2023-07-19T01:32:54.986Z,39.43
2023-07-19T01:34:56.557Z,39.40
2023-07-19T01:36:58.061Z,39.56
2023-07-19T01:38:59.574Z,39.45
2023-07-19T01:41:01.197Z,39.56
2023-07-19T01:43:02.652Z,39.25
2023-07-19T01:45:04.426Z,39.44
2023-07-19T01:47:05.982Z,39.39
2023-07-19T01:49:07.455Z,39.69
2023-07-19T01:51:09.007Z,39.83
2023-07-19T01:53:10.601Z,39.50
2023-07-19T01:55:12.148Z,39.63
2023-07-19T01:57:13.623Z,39.64
2023-07-19T01:59:15.078Z,39.39
2023-07-19T02:01:16.804Z,39.50
2023-07-19T02:03:19.286Z,39.47
2023-07-19T02:05:20.849Z,39.75
2023-07-19T02:07:22.321Z,39.81
2023-07-19T02:09:23.838Z,39.50
2023-07-19T02:11:25.711Z,39.37
2023-07-19T02:13:27.511Z,39.87
2023-07-19T02:15:29.111Z,39.82
2023-07-19T02:17:30.809Z,39.51
2023-07-19T02:19:32.322Z,39.56
2023-07-19T02:21:34.138Z,39.86
2023-07-19T02:23:35.654Z,39.65
2023-07-19T02:25:37.196Z,39.89
2023-07-19T02:27:38.731Z,39.73
2023-07-19T02:29:40.285Z,39.97
2023-07-19T02:31:41.792Z,39.74
2023-07-19T02:33:43.250Z,39.93
2023-07-19T02:35:45.042Z,39.97
2023-07-19T02:37:46.731Z,39.85
2023-07-19T02:39:48.245Z,39.97
2023-07-19T02:41:49.787Z,40.01
2023-07-19T02:43:51.254Z,40.04
2023-07-19T02:45:53.381Z,40.05
2023-07-19T02:47:55.231Z,39.97
2023-07-19T02:49:57.320Z,39.93
2023-07-19T02:51:58.807Z,39.89
2023-07-19T02:54:00.340Z,39.88
2023-07-19T02:56:01.826Z,39.78
2023-07-19T02:58:03.350Z,40.25
2023-07-19T03:00:05.670Z,40.10
2023-07-19T03:02:07.128Z,39.94
2023-07-19T03:04:08.832Z,39.95
2023-07-19T03:06:10.810Z,39.89
2023-07-19T03:08:12.750Z,39.98
2023-07-19T03:10:14.273Z,40.12
2023-07-19T03:12:15.758Z,40.14
2023-07-19T03:14:17.295Z,39.82
2023-07-19T03:16:18.818Z,40.20
2023-07-19T03:18:20.589Z,40.34
2023-07-19T03:20:22.034Z,40.17
2023-07-19T03:22:23.563Z,40.29
2023-07-19T03:24:25.025Z,40.31
2023-07-19T03:26:26.941Z,40.14
2023-07-19T03:28:29.255Z,40.11
2023-07-19T03:30:30.813Z,40.50
2023-07-19T03:32:32.496Z,40.19
2023-07-19T03:34:35.311Z,40.41
2023-07-19T03:36:36.817Z,40.38
2023-07-19T03:38:38.336Z,40.29
2023-07-19T03:40:40.048Z,40.33
2023-07-19T03:42:41.659Z,40.51
2023-07-19T03:44:43.308Z,40.38
2023-07-19T03:46:44.912Z,40.54
2023-07-19T03:48:46.377Z,40.24
2023-07-19T03:50:56.189Z,40.32
2023-07-19T03:52:58.091Z,40.36
2023-07-19T03:54:59.572Z,40.65
2023-07-19T03:57:02.106Z,40.14
2023-07-19T03:59:03.562Z,40.58
2023-07-19T04:01:05.019Z,40.40
2023-07-19T04:03:07.820Z,40.33
2023-07-19T04:05:09.383Z,40.32
2023-07-19T04:07:10.842Z,40.34
2023-07-19T04:09:12.357Z,40.52
2023-07-19T04:11:13.951Z,40.41
2023-07-19T04:13:15.707Z,40.57
2023-07-19T04:15:17.309Z,40.47
2023-07-19T04:17:18.831Z,40.35
2023-07-19T04:19:20.576Z,40.52
2023-07-19T04:21:22.437Z,40.33
2023-07-19T04:23:24.644Z,40.38
2023-07-19T04:25:26.137Z,40.34
2023-07-19T04:27:27.682Z,40.66
2023-07-19T04:29:29.184Z,40.34
2023-07-19T04:31:30.741Z,40.57
2023-07-19T04:33:32.522Z,40.61
2023-07-19T04:35:34.035Z,40.58
2023-07-19T04:37:36.182Z,40.37
2023-07-19T04:39:37.669Z,40.36
2023-07-19T04:41:39.176Z,40.56
2023-07-19T04:43:40.674Z,40.73
2023-07-19T04:45:44.674Z,40.59
2023-07-19T04:47:46.271Z,40.39
2023-07-19T04:49:47.788Z,40.48
2023-07-19T04:51:49.222Z,40.63
2023-07-19T04:53:50.798Z,40.43
2023-07-19T04:55:53.006Z,40.54
2023-07-19T04:57:54.495Z,40.30
2023-07-19T04:59:55.996Z,40.67
2023-07-19T05:01:57.500Z,40.33
2023-07-19T05:03:59.066Z,40.29
2023-07-19T05:06:01.073Z,40.80
2023-07-19T05:08:05.273Z,40.43
2023-07-19T05:10:07.140Z,40.49
2023-07-19T05:12:09.330Z,40.23
2023-07-19T05:14:10.921Z,40.67
2023-07-19T05:16:12.415Z,40.41
2023-07-19T05:18:13.914Z,40.39
2023-07-19T05:20:15.638Z,40.42
2023-07-19T05:22:17.411Z,40.37
2023-07-19T05:24:18.916Z,40.55
2023-07-19T05:26:20.429Z,40.69
2023-07-19T05:28:21.990Z,40.67
2023-07-19T05:30:23.594Z,40.50
2023-07-19T05:32:25.749Z,40.62
2023-07-19T05:34:27.374Z,40.42
2023-07-19T05:36:28.945Z,40.51
2023-07-19T05:38:30.818Z,40.60
2023-07-19T05:40:32.677Z,40.44
2023-07-19T05:42:34.488Z,40.78
2023-07-19T05:44:35.969Z,40.31
2023-07-19T05:46:37.600Z,40.66
2023-07-19T05:48:39.277Z,40.63
2023-07-19T05:50:40.775Z,40.59
2023-07-19T05:52:42.340Z,40.64
2023-07-19T05:54:43.849Z,40.34
2023-07-19T05:56:45.323Z,40.34
2023-07-19T05:58:46.928Z,40.25
2023-07-19T06:00:48.706Z,40.55
2023-07-19T06:02:54.896Z,40.45
2023-07-19T06:04:57.316Z,40.60
2023-07-19T06:06:58.825Z,40.53
2023-07-19T06:09:02.360Z,40.43
2023-07-19T06:11:03.820Z,40.47
2023-07-19T06:13:05.850Z,40.47
2023-07-19T06:15:07.616Z,40.60
2023-07-19T06:17:09.325Z,40.49
2023-07-19T06:19:10.855Z,40.45
2023-07-19T06:21:12.333Z,40.36
2023-07-19T06:23:14.698Z,40.60
2023-07-19T06:25:16.642Z,40.67
2023-07-19T06:27:18.252Z,40.48
2023-07-19T06:29:19.784Z,40.62
2023-07-19T06:31:21.475Z,40.31
2023-07-19T06:33:24.466Z,40.64
2023-07-19T06:35:25.967Z,40.62
2023-07-19T06:37:27.608Z,40.44
2023-07-19T06:39:32.041Z,40.70
2023-07-19T06:41:33.557Z,40.70
2023-07-19T06:43:35.292Z,40.50
2023-07-19T06:45:36.784Z,40.45
2023-07-19T06:47:38.437Z,40.44
2023-07-19T06:49:39.887Z,40.66
2023-07-19T06:51:41.737Z,40.85
2023-07-19T06:53:43.226Z,40.00
2023-07-19T06:55:44.837Z,39.93
2023-07-19T06:57:46.332Z,39.94
2023-07-19T06:59:50.519Z,39.77
2023-07-19T07:01:51.974Z,39.68
2023-07-19T07:03:53.671Z,40.34
2023-07-19T07:05:55.800Z,40.22
2023-07-19T07:07:57.338Z,40.45
2023-07-19T07:09:59.344Z,40.44
2023-07-19T07:12:00.861Z,40.92
2023-07-19T07:14:02.381Z,40.82
2023-07-19T07:16:03.989Z,40.92
2023-07-19T07:18:05.783Z,41.11
2023-07-19T07:20:07.737Z,41.14
2023-07-19T07:22:09.216Z,41.62
2023-07-19T07:24:10.721Z,41.34
2023-07-19T07:26:12.780Z,41.42
2023-07-19T07:28:14.283Z,41.45
2023-07-19T07:30:15.832Z,41.54
2023-07-19T07:32:17.278Z,41.61
2023-07-19T07:34:18.803Z,41.52
2023-07-19T07:36:20.266Z,41.46
2023-07-19T07:38:21.764Z,41.15
2023-07-19T07:40:23.461Z,41.15
2023-07-19T07:42:25.541Z,41.29
2023-07-19T07:44:27.722Z,41.30
2023-07-19T07:46:30.477Z,41.51
2023-07-19T07:48:33.071Z,40.99
2023-07-19T07:50:34.663Z,41.30
2023-07-19T07:52:36.671Z,41.01
2023-07-19T07:54:38.781Z,41.04
2023-07-19T07:56:40.630Z,40.81
2023-07-19T07:58:42.095Z,41.12
2023-07-19T08:00:44.443Z,40.81
2023-07-19T08:02:46.379Z,40.92
2023-07-19T08:04:48.988Z,41.10
2023-07-19T08:06:50.470Z,41.36
2023-07-19T08:08:51.967Z,41.14
2023-07-19T08:10:53.495Z,40.94
2023-07-19T08:12:54.966Z,41.10
2023-07-19T08:14:56.399Z,40.82
2023-07-19T08:17:00.529Z,40.92
2023-07-19T08:19:03.962Z,41.03
2023-07-19T08:21:07.013Z,41.05
2023-07-19T08:23:08.840Z,41.12
2023-07-19T08:25:25.034Z,41.41
2023-07-19T08:27:28.346Z,41.55
2023-07-19T08:29:29.986Z,41.60
2023-07-19T08:31:31.494Z,41.67
2023-07-19T08:33:33.418Z,42.50
2023-07-19T08:35:34.914Z,43.15
2023-07-19T08:37:36.531Z,41.74
2023-07-19T08:39:38.106Z,41.73
2023-07-19T08:41:39.725Z,42.28
2023-07-19T08:43:42.289Z,41.50
2023-07-19T08:45:43.780Z,41.86
2023-07-19T08:47:45.606Z,40.52
2023-07-19T08:49:47.762Z,41.17
2023-07-19T08:51:49.313Z,40.18
2023-07-19T08:53:50.991Z,40.32
2023-07-19T08:55:53.216Z,39.99
2023-07-19T08:57:54.656Z,39.99
2023-07-19T08:59:56.279Z,39.67
2023-07-19T09:01:57.859Z,40.00
2023-07-19T09:03:59.711Z,39.86
2023-07-19T09:08:03.668Z,38.81
2023-07-19T09:10:06.118Z,39.56
2023-07-19T09:12:08.796Z,38.63
2023-07-19T09:14:10.281Z,38.28
2023-07-19T09:16:11.817Z,38.29
2023-07-19T09:18:13.417Z,38.24
2023-07-19T09:20:15.734Z,38.50
2023-07-19T09:22:17.194Z,37.57
2023-07-19T09:24:18.699Z,38.37
2023-07-19T09:26:20.254Z,37.89
2023-07-19T09:28:23.156Z,38.12
2023-07-19T09:30:25.033Z,37.56
2023-07-19T09:32:26.827Z,37.56
2023-07-19T09:34:38.053Z,37.49
2023-07-19T09:36:41.105Z,36.63
2023-07-19T09:38:42.637Z,36.97
2023-07-19T09:40:44.129Z,37.45
2023-07-19T09:42:45.868Z,37.28
2023-07-19T09:44:48.041Z,36.68
2023-07-19T09:46:49.792Z,36.81
2023-07-19T09:48:51.316Z,37.24
2023-07-19T09:50:54.677Z,36.43
2023-07-19T09:52:58.492Z,36.97
2023-07-19T09:55:00.138Z,36.93
2023-07-19T09:57:03.490Z,37.07
2023-07-19T09:59:23.826Z,36.93
2023-07-19T10:01:25.567Z,37.00
2023-07-19T10:03:27.263Z,37.17
2023-07-19T10:05:29.895Z,37.14
2023-07-19T10:07:45.002Z,37.38
2023-07-19T10:10:02.315Z,37.60
2023-07-19T10:12:08.445Z,37.52
2023-07-19T10:14:20.367Z,37.32
2023-07-19T10:16:35.159Z,37.56
2023-07-19T10:18:37.408Z,37.27
2023-07-19T10:20:41.264Z,37.28
2023-07-19T10:22:46.614Z,37.44
2023-07-19T10:25:03.811Z,37.68
2023-07-19T10:27:06.463Z,37.77
2023-07-19T10:29:07.949Z,37.40
2023-07-19T10:31:28.092Z,37.18
2023-07-19T10:33:31.824Z,37.64
2023-07-19T10:35:33.348Z,38.04
2023-07-19T10:37:35.078Z,37.81
2023-07-19T10:39:36.540Z,37.79
2023-07-19T10:41:37.958Z,37.53
2023-07-19T10:45:44.015Z,37.51
2023-07-19T10:47:45.810Z,37.75
2023-07-19T10:49:47.690Z,37.43
2023-07-19T10:51:56.392Z,37.48
2023-07-19T10:53:59.277Z,37.71
2023-07-19T10:56:01.051Z,37.54
2023-07-19T10:58:02.575Z,37.49
2023-07-19T11:00:10.815Z,37.64
2023-07-19T11:02:12.525Z,37.59
2023-07-19T11:04:14.144Z,37.43
2023-07-19T11:06:15.827Z,37.04
2023-07-19T11:08:21.337Z,37.65
2023-07-19T11:10:22.937Z,37.30
2023-07-19T11:12:24.661Z,37.21
2023-07-19T11:14:33.163Z,37.40
2023-07-19T11:16:34.980Z,37.47
2023-07-19T11:18:37.372Z,37.34
2023-07-19T11:20:40.293Z,37.11
2023-07-19T11:22:41.916Z,37.13
2023-07-19T11:24:43.487Z,37.09
2023-07-19T11:26:52.168Z,37.20
2023-07-19T11:28:57.439Z,37.37
2023-07-19T11:30:59.060Z,36.81
2023-07-19T11:33:04.893Z,37.03
2023-07-19T11:35:06.571Z,36.83
2023-07-19T11:37:15.888Z,36.74
2023-07-19T11:39:18.086Z,37.21
2023-07-19T11:41:19.958Z,36.65
2023-07-19T11:43:25.703Z,36.69
2023-07-19T11:45:28.352Z,36.76
2023-07-19T11:47:30.126Z,36.97
2023-07-19T11:49:31.729Z,36.71
2023-07-19T11:51:33.238Z,37.08
2023-07-19T11:53:34.786Z,36.82
2023-07-19T11:55:36.366Z,36.97
2023-07-19T11:57:41.897Z,36.88
2023-07-19T11:59:43.401Z,36.87
2023-07-19T12:01:45.010Z,36.92
2023-07-19T12:03:47.493Z,36.57
2023-07-19T12:05:48.962Z,36.88
2023-07-19T12:07:51.884Z,37.00
2023-07-19T12:09:53.422Z,36.80
2023-07-19T12:11:54.937Z,36.68
2023-07-19T12:13:59.131Z,36.51
2023-07-19T12:16:00.654Z,36.68
2023-07-19T12:18:02.896Z,36.56
2023-07-19T12:20:05.209Z,36.50
2023-07-19T12:24:11.191Z,36.97
2023-07-19T12:26:12.750Z,36.32
2023-07-19T12:28:15.758Z,36.46
2023-07-19T12:30:17.215Z,36.37
2023-07-19T12:32:19.512Z,36.60
2023-07-19T12:34:21.392Z,36.32
2023-07-19T12:36:23.340Z,36.26
2023-07-19T12:38:25.354Z,36.60
2023-07-19T12:40:26.963Z,36.52
2023-07-19T12:42:30.164Z,37.87
2023-07-19T12:44:32.211Z,38.70
2023-07-19T12:46:33.915Z,38.30
2023-07-19T12:48:36.778Z,38.10
2023-07-19T12:50:38.685Z,37.40
2023-07-19T12:52:51.015Z,37.79
2023-07-19T12:54:53.689Z,37.31
2023-07-19T12:56:55.329Z,37.43
2023-07-19T12:58:57.228Z,37.19
2023-07-19T13:00:58.851Z,37.14
2023-07-19T13:03:02.492Z,37.42
2023-07-19T13:05:04.697Z,36.82
2023-07-19T13:07:06.816Z,36.75
2023-07-19T13:09:09.030Z,36.43
2023-07-19T13:11:10.767Z,36.44
2023-07-19T13:13:12.355Z,36.18
2023-07-19T13:15:13.801Z,36.38
2023-07-19T13:17:21.904Z,36.37
2023-07-19T13:19:24.624Z,35.95
2023-07-19T13:21:26.541Z,36.28
2023-07-19T13:23:28.119Z,36.27
2023-07-19T13:25:29.606Z,37.63
2023-07-19T13:27:31.234Z,36.78
2023-07-19T13:29:33.042Z,36.58
2023-07-19T13:31:34.682Z,36.26
2023-07-19T13:33:36.400Z,35.83
2023-07-19T13:39:46.713Z,36.02
2023-07-19T13:41:48.194Z,36.12
2023-07-19T13:43:49.691Z,36.19
2023-07-19T13:45:51.292Z,36.23
2023-07-19T13:47:53.002Z,36.35
2023-07-19T13:49:54.733Z,35.72
2023-07-19T13:51:56.282Z,35.69
2023-07-19T13:53:57.800Z,35.89
2023-07-19T13:55:59.252Z,35.95
2023-07-19T13:58:01.059Z,36.00
2023-07-19T14:00:02.507Z,36.10
2023-07-19T14:02:04.847Z,36.11
2023-07-19T14:04:06.453Z,36.30
2023-07-19T14:06:08.173Z,36.40
2023-07-19T14:08:10.133Z,36.63
2023-07-19T14:10:12.153Z,36.61
2023-07-19T14:12:15.094Z,36.95
2023-07-19T14:14:17.452Z,37.08
2023-07-19T14:16:19.360Z,36.83
2023-07-19T14:18:20.861Z,36.69
2023-07-19T14:20:22.389Z,36.90
2023-07-19T14:22:23.916Z,37.39
2023-07-19T14:24:26.205Z,36.71
2023-07-19T14:26:27.737Z,36.88
2023-07-19T14:28:29.273Z,36.71
2023-07-19T14:30:30.873Z,37.53
2023-07-19T14:32:32.434Z,37.14
2023-07-19T14:34:38.757Z,37.15
2023-07-19T14:36:41.265Z,37.14
2023-07-19T14:38:42.864Z,37.45
2023-07-19T14:40:44.397Z,37.49
2023-07-19T14:42:46.150Z,37.46
2023-07-19T14:44:47.696Z,37.68
2023-07-19T14:46:49.205Z,37.40
2023-07-19T14:48:50.942Z,37.75
2023-07-19T14:53:08.228Z,37.99
2023-07-19T14:55:10.146Z,37.80
2023-07-19T14:57:11.701Z,38.23
2023-07-19T14:59:13.230Z,37.82
2023-07-19T15:01:14.804Z,38.37
2023-07-19T15:03:28.179Z,38.42
2023-07-19T15:05:30.776Z,38.49
2023-07-19T15:07:32.725Z,38.04
2023-07-19T15:09:34.290Z,38.35
2023-07-19T15:11:36.004Z,38.38
2023-07-19T15:13:38.207Z,38.76
2023-07-19T15:15:45.219Z,38.52
2023-07-19T15:17:47.894Z,38.57
2023-07-19T15:19:50.152Z,38.74
2023-07-19T15:21:51.769Z,38.62
2023-07-19T15:23:53.418Z,38.68
2023-07-19T15:25:55.393Z,38.84
2023-07-19T15:27:57.445Z,38.90
2023-07-19T15:30:00.627Z,38.72
2023-07-19T15:32:02.428Z,38.81
2023-07-19T15:34:04.008Z,39.13
2023-07-19T15:36:06.131Z,38.98
2023-07-19T15:38:07.927Z,39.02
2023-07-19T15:40:09.758Z,38.97
2023-07-19T15:42:11.605Z,39.08
2023-07-19T15:44:29.367Z,39.15
2023-07-19T15:46:34.729Z,39.05
2023-07-19T15:48:37.491Z,39.22
2023-07-19T15:50:39.857Z,38.79
2023-07-19T15:52:41.968Z,38.79
2023-07-19T15:54:43.568Z,38.56
2023-07-19T15:56:45.096Z,38.74
2023-07-19T15:58:46.567Z,38.27
2023-07-19T16:00:48.202Z,38.33
2023-07-19T16:02:49.764Z,38.43
2023-07-19T16:04:51.498Z,38.37
2023-07-19T16:06:53.044Z,38.24
2023-07-19T16:08:55.511Z,37.97
2023-07-19T16:10:56.954Z,37.79
2023-07-19T16:12:58.555Z,38.18
2023-07-19T16:15:00.140Z,37.99
2023-07-19T16:17:01.687Z,37.88
2023-07-19T16:19:03.562Z,37.78
2023-07-19T16:21:05.248Z,37.87
2023-07-19T16:23:06.819Z,38.01
2023-07-19T16:25:11.019Z,38.27
2023-07-19T16:27:12.672Z,37.84
2023-07-19T16:29:14.183Z,38.21
2023-07-19T16:31:19.059Z,38.48
2023-07-19T16:33:20.626Z,38.33
2023-07-19T16:35:22.199Z,38.58
2023-07-19T16:37:23.917Z,38.45
2023-07-19T16:39:25.449Z,38.62
2023-07-19T16:41:26.894Z,38.96
2023-07-19T16:43:28.471Z,39.58
2023-07-19T16:45:30.001Z,38.64
2023-07-19T16:47:31.737Z,39.22
2023-07-19T16:49:33.370Z,38.86
2023-07-19T16:51:34.918Z,38.70
2023-07-19T16:53:36.439Z,38.69
2023-07-19T16:55:37.926Z,38.59
2023-07-19T16:57:39.506Z,39.40
2023-07-19T16:59:41.051Z,38.69
2023-07-19T17:01:42.612Z,39.07
2023-07-19T17:03:44.347Z,38.74
2023-07-19T17:05:46.059Z,38.31
2023-07-19T17:07:47.983Z,38.49
2023-07-19T17:09:49.638Z,38.22
2023-07-19T17:11:51.505Z,38.09
2023-07-19T17:13:53.990Z,38.42
2023-07-19T17:15:55.734Z,38.34
2023-07-19T17:17:59.525Z,38.25
2023-07-19T17:20:01.245Z,38.79
2023-07-19T17:22:02.796Z,38.54
2023-07-19T17:24:04.400Z,38.81
2023-07-19T17:26:06.051Z,39.05
2023-07-19T17:28:07.569Z,39.04
2023-07-19T17:30:09.536Z,38.72
2023-07-19T17:32:13.844Z,38.84
2023-07-19T17:34:15.296Z,39.24
2023-07-19T17:36:16.872Z,39.44
2023-07-19T17:38:18.367Z,39.31
2023-07-19T17:40:19.927Z,39.09
2023-07-19T17:42:21.830Z,39.32
2023-07-19T17:44:23.393Z,39.41
2023-07-19T17:46:24.956Z,39.44
2023-07-19T17:48:26.456Z,39.55
2023-07-19T17:50:28.319Z,39.74
2023-07-19T17:52:30.463Z,39.61
2023-07-19T17:54:31.932Z,39.61
2023-07-19T17:56:33.463Z,39.91
2023-07-19T17:58:36.550Z,39.65
2023-07-19T18:00:38.093Z,39.70
2023-07-19T18:02:39.745Z,39.70
2023-07-19T18:04:42.310Z,39.78
2023-07-19T18:06:44.010Z,39.76
2023-07-19T18:08:45.560Z,40.03
2023-07-19T18:10:47.197Z,40.00
2023-07-19T18:12:48.737Z,40.06
2023-07-19T18:14:50.564Z,40.22
2023-07-19T18:16:52.101Z,40.22
2023-07-19T18:18:53.813Z,39.99
2023-07-19T18:20:55.735Z,40.08
2023-07-19T18:22:57.249Z,40.05
2023-07-19T18:24:59.166Z,40.14
2023-07-19T18:27:01.263Z,40.15
2023-07-19T18:29:03.705Z,40.52
2023-07-19T18:31:05.222Z,40.22
2023-07-19T18:33:06.835Z,40.38
2023-07-19T18:35:08.521Z,40.57
2023-07-19T18:37:10.044Z,40.24
2023-07-19T18:39:12.882Z,40.49
2023-07-19T18:41:14.707Z,40.52
2023-07-19T18:43:16.316Z,40.28
2023-07-19T18:45:17.867Z,40.63
2023-07-19T18:47:19.357Z,40.31
2023-07-19T18:49:20.837Z,40.48
2023-07-19T18:51:23.567Z,40.54
2023-07-19T18:53:26.793Z,40.50
2023-07-19T18:55:28.221Z,40.45
2023-07-19T18:57:30.381Z,40.62
2023-07-19T18:59:31.965Z,40.40
2023-07-19T19:01:34.457Z,40.57
2023-07-19T19:03:36.132Z,40.20
2023-07-19T19:05:37.664Z,40.63
2023-07-19T19:07:39.182Z,40.62
2023-07-19T19:09:40.664Z,40.44
2023-07-19T19:11:42.131Z,40.43
2023-07-19T19:13:43.576Z,40.61
2023-07-19T19:15:46.073Z,40.55
2023-07-19T19:17:48.007Z,40.34
2023-07-19T19:19:49.889Z,40.42
2023-07-19T19:21:51.529Z,40.54
2023-07-19T19:23:53.062Z,40.30
2023-07-19T19:25:54.667Z,40.66
2023-07-19T19:27:56.429Z,40.35
2023-07-19T19:29:58.194Z,40.61
2023-07-19T19:31:59.910Z,40.69
2023-07-19T19:34:01.451Z,40.63
2023-07-19T19:36:02.978Z,40.81
2023-07-19T19:38:04.632Z,40.57
2023-07-19T19:40:10.103Z,40.79
2023-07-19T19:42:11.590Z,40.37
2023-07-19T19:44:13.126Z,40.65
2023-07-19T19:46:14.733Z,40.80
2023-07-19T19:48:16.475Z,40.89
2023-07-19T19:50:18.059Z,40.73
2023-07-19T19:52:19.796Z,40.55
2023-07-19T19:54:22.902Z,40.63
2023-07-19T19:58:32.788Z,40.61
2023-07-19T20:00:35.948Z,40.79
2023-07-19T20:02:38.348Z,40.93
2023-07-19T20:04:40.192Z,41.08
2023-07-19T20:06:41.832Z,41.05
2023-07-19T20:12:54.772Z,41.05
2023-07-19T20:14:56.379Z,41.11
2023-07-19T20:16:57.951Z,41.06
2023-07-19T20:23:02.422Z,41.37
2023-07-19T20:25:19.584Z,41.20
2023-07-19T20:27:26.297Z,41.31
2023-07-19T20:29:27.852Z,41.51
2023-07-19T20:33:36.063Z,41.14
2023-07-19T20:37:42.323Z,41.19
2023-07-19T20:41:48.690Z,41.35
2023-07-19T20:43:50.449Z,41.38
2023-07-19T20:45:52.045Z,41.63
2023-07-19T20:47:53.540Z,41.09
2023-07-19T20:49:55.011Z,41.07
2023-07-19T20:51:56.530Z,41.27
2023-07-19T20:53:58.138Z,41.17
2023-07-19T20:55:59.593Z,41.35
2023-07-19T20:58:01.100Z,41.35
2023-07-19T21:00:03.329Z,40.87
2023-07-19T21:02:05.082Z,41.09
2023-07-19T21:04:06.580Z,41.10
2023-07-19T21:06:08.109Z,41.34
2023-07-19T21:08:09.628Z,41.56
2023-07-19T21:10:11.547Z,41.32
2023-07-19T21:12:13.087Z,41.47
2023-07-19T21:14:14.829Z,41.19
2023-07-19T21:16:16.303Z,41.30
2023-07-19T21:18:18.096Z,41.20
2023-07-19T21:20:20.350Z,41.18
2023-07-19T21:22:22.107Z,41.37
2023-07-19T21:24:23.631Z,41.39
2023-07-19T21:26:25.122Z,41.50
2023-07-19T21:28:26.740Z,41.26
2023-07-19T21:30:28.310Z,41.43
2023-07-19T21:32:29.970Z,41.38
2023-07-19T21:34:31.475Z,41.11
2023-07-19T21:36:33.137Z,41.33
2023-07-19T21:38:34.815Z,41.36
2023-07-19T21:40:36.292Z,41.21
2023-07-19T21:42:38.087Z,41.29
2023-07-19T21:44:39.615Z,41.35
2023-07-19T21:46:41.974Z,41.47
2023-07-19T21:48:43.541Z,41.58
2023-07-19T21:50:48.734Z,41.30
2023-07-19T21:52:50.790Z,41.24
2023-07-19T21:54:52.274Z,41.29
2023-07-19T21:56:53.719Z,41.49
2023-07-19T21:58:55.225Z,41.62
2023-07-19T22:00:56.936Z,41.59
2023-07-19T22:02:58.527Z,41.36
2023-07-19T22:05:00.410Z,41.33
2023-07-19T22:07:03.413Z,41.26
2023-07-19T22:09:06.036Z,41.54
2023-07-19T22:11:08.760Z,41.49
2023-07-19T22:13:10.477Z,41.72
2023-07-19T22:15:11.915Z,41.77
2023-07-19T22:17:13.394Z,41.85
2023-07-19T22:19:15.458Z,41.76
2023-07-19T22:21:22.318Z,41.74
2023-07-19T22:23:24.564Z,41.58
2023-07-19T22:25:26.090Z,41.58
2023-07-19T22:27:27.731Z,41.60
2023-07-19T22:29:29.221Z,41.81
2023-07-19T22:31:31.214Z,41.63
2023-07-19T22:33:32.688Z,41.94
2023-07-19T22:35:34.390Z,41.49
2023-07-19T22:37:35.926Z,41.63
2023-07-19T22:39:37.440Z,41.79
2023-07-19T22:41:39.169Z,41.82
2023-07-19T22:43:40.645Z,41.70
2023-07-19T22:45:42.238Z,41.67
2023-07-19T22:47:43.744Z,41.82
2023-07-19T22:49:46.402Z,42.01
2023-07-19T22:51:48.082Z,42.16
2023-07-19T22:53:49.584Z,41.89
2023-07-19T22:55:51.065Z,41.89
2023-07-19T22:57:53.344Z,41.79
2023-07-19T22:59:54.884Z,41.80
2023-07-19T23:01:56.489Z,42.25
2023-07-19T23:03:58.151Z,41.91
2023-07-19T23:05:59.734Z,41.98
2023-07-19T23:08:01.289Z,41.80
2023-07-19T23:10:03.497Z,42.22
2023-07-19T23:12:05.117Z,42.08
2023-07-19T23:14:09.503Z,42.24
2023-07-19T23:16:11.120Z,42.12
2023-07-19T23:18:12.593Z,41.97
2023-07-19T23:20:14.625Z,42.32
2023-07-19T23:22:16.934Z,42.29
2023-07-19T23:24:18.634Z,42.21
2023-07-19T23:26:23.941Z,41.89
2023-07-19T23:28:25.683Z,42.13
2023-07-19T23:30:28.768Z,42.14
2023-07-19T23:32:30.543Z,42.34
2023-07-19T23:34:32.330Z,42.23
2023-07-19T23:36:33.808Z,42.34
2023-07-19T23:38:35.356Z,42.11
2023-07-19T23:40:36.843Z,42.27
2023-07-19T23:42:38.379Z,42.12
2023-07-19T23:44:40.612Z,42.32
2023-07-19T23:46:42.677Z,42.53
2023-07-19T23:48:44.373Z,42.07
2023-07-19T23:50:45.845Z,42.22
2023-07-19T23:52:47.596Z,42.26
2023-07-19T23:54:49.144Z,42.67
2023-07-19T23:56:50.622Z,42.19
2023-07-19T23:58:52.070Z,42.15
